Time;durP1;ratioP1;P1;durP2;ratioP2;P2;SDS_P1;SDS_P2;PMS_P1;PMS_P2;Temp;Humidity;BMP_temperature;BMP_pressure;BME280_temperature;BME280_humidity;BME280_pressure;Samples;Min_cycle;Max_cycle;Signal;HPM_P1;HPM_P2
2023/07/05 00:01:27;;;;;;;3.70;1.57;;;;;;;23.32;59.94;99789.31;5082446;28;20213;-65
2023/07/05 00:03:53;;;;;;;3.40;1.87;;;;;;;23.32;60.16;99810.28;5074397;28;20823;-65
2023/07/05 00:06:19;;;;;;;2.73;1.43;;;;;;;23.32;60.11;99800.81;5070728;28;20616;-65
2023/07/05 00:08:45;;;;;;;5.73;1.53;;;;;;;23.32;60.12;99795.06;5088415;28;20421;-65
2023/07/05 00:11:11;;;;;;;4.00;1.90;;;;;;;23.31;59.93;99794.25;5077258;28;20678;-65
2023/07/05 00:13:36;;;;;;;7.00;1.70;;;;;;;23.31;60.14;99794.25;5074940;28;20235;-65
2023/07/05 00:16:02;;;;;;;7.47;2.40;;;;;;;23.32;60.25;99800.81;5076169;28;20190;-65
2023/07/05 00:18:27;;;;;;;4.97;2.20;;;;;;;23.32;60.29;99792.19;5088336;28;20167;-65
2023/07/05 00:20:53;;;;;;;3.40;1.60;;;;;;;23.30;60.58;99795.50;5070139;28;20677;-65
2023/07/05 00:23:18;;;;;;;2.83;1.43;;;;;;;23.32;60.44;99792.19;5071035;28;20669;-65
2023/07/05 00:25:44;;;;;;;5.50;1.70;;;;;;;23.30;60.73;99792.63;5084898;28;20186;-65
2023/07/05 00:28:09;;;;;;;3.23;1.80;;;;;;;23.31;60.36;99808.66;5079411;28;20618;-65
2023/07/05 00:30:35;;;;;;;2.90;1.60;;;;;;;23.31;60.55;99805.78;5070569;28;20181;-65
2023/07/05 00:33:00;;;;;;;4.53;2.00;;;;;;;23.32;60.52;99816.06;5085139;28;20198;-65
2023/07/05 00:35:25;;;;;;;6.90;2.00;;;;;;;23.31;60.41;99811.53;5068376;28;20188;-65
2023/07/05 00:37:51;;;;;;;2.53;1.60;;;;;;;23.31;60.72;99811.53;5070603;28;20190;-65
2023/07/05 00:40:16;;;;;;;5.30;2.10;;;;;;;23.31;60.77;99805.78;5052906;28;20198;-65
2023/07/05 00:42:42;;;;;;;3.23;1.80;;;;;;;23.31;60.74;99793.44;5068169;28;20197;-65
2023/07/05 00:45:10;;;;;;;7.10;1.70;;;;;;;23.31;61.06;99797.16;5070774;28;20762;-65
2023/07/05 00:47:36;;;;;;;4.00;1.80;;;;;;;23.31;61.05;99788.50;5087946;28;20223;-65
2023/07/05 00:50:10;;;;;;;5.10;1.77;;;;;;;23.32;60.85;99810.28;5091612;28;20416;-65
2023/07/05 00:52:35;;;;;;;3.23;1.90;;;;;;;23.31;60.02;99782.75;5073461;28;20169;-65
2023/07/05 00:55:01;;;;;;;5.30;1.90;;;;;;;23.31;60.47;99782.75;5053762;28;20478;-65
2023/07/05 00:57:31;;;;;;;4.77;1.97;;;;;;;23.31;60.82;99802.91;5036908;28;20699;-65
2023/07/05 01:00:00;;;;;;;3.77;1.53;;;;;;;23.32;60.99;99813.19;5053634;28;20213;-65
2023/07/05 01:02:26;;;;;;;3.57;1.67;;;;;;;23.32;60.52;99818.94;5082263;28;20479;-65
2023/07/05 01:04:52;;;;;;;3.50;2.10;;;;;;;23.32;60.79;99813.19;5074259;28;20467;-65
2023/07/05 01:07:17;;;;;;;3.83;1.93;;;;;;;23.32;60.84;99810.28;5074536;28;20202;-65
2023/07/05 01:09:46;;;;;;;2.97;1.50;;;;;;;23.33;60.68;99816.88;5091814;28;20171;-65
2023/07/05 01:12:41;;;;;;;3.20;1.80;;;;;;;23.32;60.92;99824.69;5077498;28;20906;-65
2023/07/05 01:15:10;;;;;;;6.20;2.10;;;;;;;23.33;61.10;99845.69;5042173;28;20807;-65
2023/07/05 01:17:38;;;;;;;2.53;1.67;;;;;;;23.32;61.18;99830.47;5055232;28;20502;-65
2023/07/05 01:20:16;;;;;;;2.90;1.50;;;;;;;23.32;60.72;99818.09;5052122;28;20537;-65
2023/07/05 01:23:03;;;;;;;2.60;1.57;;;;;;;23.31;60.76;99808.66;5073158;28;21092;-65
2023/07/05 01:25:41;;;;;;;10.37;2.23;;;;;;;23.30;61.08;99792.63;5089697;28;20991;-65
2023/07/05 01:28:40;;;;;;;6.23;1.67;;;;;;;23.30;61.07;99792.63;5089471;28;20443;-65
2023/07/05 01:31:08;;;;;;;4.90;1.97;;;;;;;23.31;61.28;99785.63;5085334;28;20515;-65
2023/07/05 01:33:45;;;;;;;3.57;1.90;;;;;;;23.32;61.02;99790.13;5088298;28;20439;-65
2023/07/05 01:36:10;;;;;;;3.30;1.87;;;;;;;23.31;60.97;99799.19;5090256;28;20435;-65
2023/07/05 01:38:36;;;;;;;4.13;1.73;;;;;;;23.31;61.05;99804.97;5070022;28;20429;-66
2023/07/05 01:41:04;;;;;;;5.10;1.70;;;;;;;23.31;60.93;99816.47;5072852;28;20198;-65
2023/07/05 01:43:29;;;;;;;3.17;1.40;;;;;;;23.30;61.12;99818.56;5053846;28;20790;-65
2023/07/05 01:46:07;;;;;;;4.63;1.63;;;;;;;23.30;61.28;99817.72;5052754;28;20436;-66
2023/07/05 01:48:45;;;;;;;4.60;2.00;;;;;;;23.30;61.35;99812.78;5053465;28;20179;-65
2023/07/05 01:51:34;;;;;;;3.23;1.40;;;;;;;23.29;60.98;99805.38;5078125;28;20911;-65
2023/07/05 01:54:09;;;;;;;2.90;1.80;;;;;;;23.29;61.32;99811.13;5076588;28;20433;-65
2023/07/05 01:56:39;;;;;;;2.83;1.63;;;;;;;23.29;60.88;99819.78;5069329;28;20420;-66
2023/07/05 01:59:05;;;;;;;4.43;2.00;;;;;;;23.29;60.94;99799.63;5067044;28;20464;-65
2023/07/05 02:01:30;;;;;;;3.33;1.60;;;;;;;23.29;61.22;99807.47;5051986;28;20484;-65
2023/07/05 02:03:56;;;;;;;2.57;1.40;;;;;;;23.28;60.98;99809.50;5051874;28;20238;-65
2023/07/05 02:06:21;;;;;;;3.10;1.70;;;;;;;23.28;61.16;99818.16;5059288;28;20305;-65
2023/07/05 02:08:49;;;;;;;2.70;1.70;;;;;;;23.28;61.25;99805.81;5070374;28;20425;-65
2023/07/05 02:11:15;;;;;;;3.67;1.70;;;;;;;23.27;61.54;99804.16;5070356;28;20171;-65
2023/07/05 02:13:41;;;;;;;3.17;1.43;;;;;;;23.28;61.04;99794.31;5087221;28;20436;-65
2023/07/05 02:16:06;;;;;;;4.77;2.00;;;;;;;23.26;61.25;99791.84;5085421;28;20470;-65
2023/07/05 02:18:32;;;;;;;6.37;2.40;;;;;;;23.26;61.50;99800.47;5071384;28;20190;-65
2023/07/05 02:20:57;;;;;;;2.87;1.80;;;;;;;23.26;61.25;99791.84;5086744;28;20210;-65
2023/07/05 02:23:23;;;;;;;3.17;1.80;;;;;;;23.27;61.52;99792.63;5073210;28;20171;-65
2023/07/05 02:25:50;;;;;;;4.03;1.70;;;;;;;23.27;61.38;99792.63;5075620;28;20217;-65
2023/07/05 02:28:15;;;;;;;2.77;1.63;;;;;;;23.26;61.59;99791.84;5070828;28;20187;-65
2023/07/05 02:30:41;;;;;;;3.10;1.97;;;;;;;23.26;61.40;99785.25;5078918;28;20432;-65
2023/07/05 02:33:07;;;;;;;3.53;1.63;;;;;;;23.27;61.43;99796.34;5075385;28;20186;-65
2023/07/05 02:35:39;;;;;;;4.00;2.37;;;;;;;23.25;61.38;99786.50;5058445;28;20190;-65
2023/07/05 02:38:04;;;;;;;2.80;1.73;;;;;;;23.25;61.49;99787.34;5068027;28;20183;-65
2023/07/05 02:40:29;;;;;;;3.17;1.93;;;;;;;23.25;61.35;99783.63;5063448;28;20964;-65
2023/07/05 02:42:55;;;;;;;3.30;2.00;;;;;;;23.26;61.35;99782.38;5070274;28;20189;-65
2023/07/05 02:45:21;;;;;;;3.93;1.67;;;;;;;23.24;61.56;99782.78;5063756;28;20274;-65
2023/07/05 02:47:46;;;;;;;4.20;1.87;;;;;;;23.24;62.14;99776.22;5071591;28;20428;-65
2023/07/05 02:50:14;;;;;;;3.07;1.60;;;;;;;23.24;61.65;99768.38;5053827;28;20178;-65
2023/07/05 02:52:40;;;;;;;4.57;1.90;;;;;;;23.24;61.35;99765.50;5071882;28;20685;-65
2023/07/05 02:55:06;;;;;;;3.67;2.00;;;;;;;23.24;61.54;99768.38;5071909;28;21344;-65
2023/07/05 02:57:31;;;;;;;3.60;1.70;;;;;;;23.25;61.69;99774.97;5048817;28;20530;-65
2023/07/05 02:59:57;;;;;;;5.57;1.70;;;;;;;23.24;61.45;99773.34;5073496;28;20222;-65
2023/07/05 03:02:22;;;;;;;3.50;1.80;;;;;;;23.24;61.74;99782.00;5051677;28;20557;-65
2023/07/05 03:04:48;;;;;;;3.70;2.30;;;;;;;23.23;61.45;99775.41;5072454;28;20230;-65
2023/07/05 03:07:13;;;;;;;3.53;1.90;;;;;;;23.23;61.60;99781.16;5064813;28;20207;-65
2023/07/05 03:09:39;;;;;;;3.00;1.50;;;;;;;23.23;61.32;99780.34;5084038;28;20191;-65
2023/07/05 03:12:04;;;;;;;4.27;1.93;;;;;;;23.23;61.46;99780.34;5076628;28;20187;-65
2023/07/05 03:14:30;;;;;;;4.57;1.87;;;;;;;23.22;61.46;99782.41;5070390;28;20198;-65
2023/07/05 03:16:55;;;;;;;2.90;1.80;;;;;;;23.23;61.38;99789.00;5037821;28;20178;-65
2023/07/05 03:19:21;;;;;;;2.70;1.70;;;;;;;23.22;61.68;99779.53;5070063;28;20241;-65
2023/07/05 03:21:47;;;;;;;5.63;2.20;;;;;;;23.22;61.33;99784.47;5067468;28;20189;-65
2023/07/05 03:24:12;;;;;;;3.20;2.00;;;;;;;23.22;61.70;99790.22;5079269;28;20186;-65
2023/07/05 03:26:38;;;;;;;2.63;1.77;;;;;;;23.22;61.51;99785.28;5066666;28;20448;-65
2023/07/05 03:29:03;;;;;;;4.47;1.80;;;;;;;23.21;61.63;99786.53;5084667;28;20178;-65
2023/07/05 03:31:29;;;;;;;2.93;1.83;;;;;;;23.21;61.22;99783.66;5051221;28;20540;-65
2023/07/05 03:33:54;;;;;;;2.93;1.57;;;;;;;23.21;61.52;99777.91;5082038;28;20190;-65
2023/07/05 03:36:20;;;;;;;3.03;1.80;;;;;;;23.21;61.54;99780.78;5072759;28;20202;-65
2023/07/05 03:38:45;;;;;;;5.33;1.57;;;;;;;23.21;61.39;99780.78;5068872;28;20252;-65
2023/07/05 03:41:18;;;;;;;9.87;1.93;;;;;;;23.20;61.12;99775.44;5079722;28;20575;-65
2023/07/05 03:43:46;;;;;;;3.63;1.70;;;;;;;23.21;61.34;99768.44;5085504;28;20182;-65
2023/07/05 03:46:12;;;;;;;3.13;1.70;;;;;;;23.21;61.44;99766.38;5088872;28;20882;-65
2023/07/05 03:48:38;;;;;;;4.50;2.33;;;;;;;23.22;61.74;99770.88;5073597;28;20441;-65
2023/07/05 03:51:04;;;;;;;4.40;2.17;;;;;;;23.21;61.16;99766.38;5060720;28;20869;-65
2023/07/05 03:53:30;;;;;;;6.37;2.23;;;;;;;23.22;61.52;99767.16;5066362;28;20421;-65
2023/07/05 03:56:02;;;;;;;4.00;1.90;;;;;;;23.21;61.49;99765.53;5050684;28;20198;-65
2023/07/05 03:58:27;;;;;;;4.67;1.73;;;;;;;23.22;61.42;99770.06;5067659;28;20171;-65
2023/07/05 04:00:53;;;;;;;4.57;1.87;;;;;;;23.20;61.18;99776.25;5072965;28;21133;-65
2023/07/05 04:03:18;;;;;;;2.90;1.53;;;;;;;23.21;61.24;99765.53;5087379;28;20716;-65
2023/07/05 04:05:45;;;;;;;3.10;1.80;;;;;;;23.19;61.46;99760.19;5070731;28;20575;-65
2023/07/05 04:08:10;;;;;;;2.50;1.80;;;;;;;23.20;61.41;99769.69;5066298;28;20227;-65
2023/07/05 04:10:36;;;;;;;4.00;2.00;;;;;;;23.19;61.43;99765.97;5079148;28;20927;-65
2023/07/05 04:13:01;;;;;;;4.37;1.80;;;;;;;23.19;61.36;99768.03;5070795;28;20176;-65
2023/07/05 04:15:26;;;;;;;2.60;1.70;;;;;;;23.20;61.60;99758.16;5087354;28;20502;-65
2023/07/05 04:17:52;;;;;;;3.70;1.63;;;;;;;23.21;61.24;99763.50;5086524;28;20259;-65
2023/07/05 04:20:17;;;;;;;3.47;1.70;;;;;;;23.20;61.22;99758.97;5053301;28;20589;-65
2023/07/05 04:22:43;;;;;;;4.00;1.83;;;;;;;23.20;61.50;99758.97;5068295;28;20190;-65
2023/07/05 04:25:09;;;;;;;4.80;1.90;;;;;;;23.19;61.37;99756.53;5086910;28;20535;-65
2023/07/05 04:27:34;;;;;;;4.53;1.87;;;;;;;23.19;61.54;99765.16;5085383;28;20215;-65
2023/07/05 04:30:00;;;;;;;3.43;1.97;;;;;;;23.18;61.33;99761.44;5065570;28;20198;-65
2023/07/05 04:32:25;;;;;;;8.23;1.77;;;;;;;23.19;61.41;99770.94;5064794;28;20183;-65
2023/07/05 04:34:51;;;;;;;8.00;2.20;;;;;;;23.18;61.17;99824.81;5082869;28;20626;-65
2023/07/05 04:37:16;;;;;;;3.67;1.90;;;;;;;23.16;62.05;99826.44;5037357;28;20212;-65
2023/07/05 04:39:42;;;;;;;4.70;1.67;;;;;;;23.14;62.05;99832.63;5049755;28;20742;-65
2023/07/05 04:42:08;;;;;;;5.93;1.93;;;;;;;23.14;62.33;99837.59;5066901;28;20208;-65
2023/07/05 04:44:33;;;;;;;4.10;1.90;;;;;;;23.12;62.18;99846.66;5055443;28;20189;-65
2023/07/05 04:46:58;;;;;;;4.80;1.70;;;;;;;23.11;62.71;99859.41;5066192;28;20626;-65
2023/07/05 04:49:24;;;;;;;2.97;1.90;;;;;;;23.10;62.23;99851.19;5045135;28;20201;-65
2023/07/05 04:51:49;;;;;;;3.63;1.93;;;;;;;23.10;62.42;99851.19;5070900;28;20205;-65
2023/07/05 04:54:16;;;;;;;3.57;1.97;;;;;;;23.10;63.00;99854.91;5062932;28;20186;-65
2023/07/05 04:56:41;;;;;;;3.47;2.00;;;;;;;23.10;62.59;99851.19;5072949;28;20182;-65
2023/07/05 04:59:07;;;;;;;3.30;1.90;;;;;;;23.11;62.95;99858.59;5066099;28;20435;-65
2023/07/05 05:01:32;;;;;;;4.40;2.30;;;;;;;23.10;63.06;99852.03;5071266;28;20704;-65
2023/07/05 05:03:58;;;;;;;6.17;2.07;;;;;;;23.11;63.10;99852.81;5070944;28;20575;-65
2023/07/05 05:06:23;;;;;;;5.53;1.60;;;;;;;23.10;63.19;99856.94;5068920;28;20714;-65
2023/07/05 05:08:49;;;;;;;5.30;2.07;;;;;;;23.10;62.95;99863.53;5066993;28;20186;-65
2023/07/05 05:11:14;;;;;;;4.60;1.63;;;;;;;23.11;63.34;99870.09;5087668;28;20547;-65
2023/07/05 05:13:39;;;;;;;3.13;1.90;;;;;;;23.11;63.08;99870.94;5066110;28;20193;-65
2023/07/05 05:16:05;;;;;;;4.40;1.70;;;;;;;23.12;63.02;99875.44;5086326;28;20190;-65
2023/07/05 05:18:34;;;;;;;3.40;2.00;;;;;;;23.11;63.28;99882.44;5083871;28;20201;-65
2023/07/05 05:21:00;;;;;;;4.00;2.07;;;;;;;23.15;62.95;99880.38;5081040;28;20225;-65
2023/07/05 05:23:26;;;;;;;5.27;2.40;;;;;;;23.18;63.00;99893.94;5088307;28;20420;-65
2023/07/05 05:25:51;;;;;;;3.27;1.70;;;;;;;23.22;62.58;99894.75;5074770;28;20807;-65
2023/07/05 05:28:17;;;;;;;3.07;1.80;;;;;;;23.21;62.64;99893.09;5049089;28;20444;-65
2023/07/05 05:30:43;;;;;;;2.93;1.60;;;;;;;23.17;63.30;99894.31;5058383;28;20179;-65
2023/07/05 05:33:09;;;;;;;2.90;1.53;;;;;;;23.14;63.24;99901.75;5069530;28;20275;-65
2023/07/05 05:35:35;;;;;;;3.70;2.07;;;;;;;23.14;63.06;99903.81;5066841;28;20584;-65
2023/07/05 05:38:00;;;;;;;4.20;1.97;;;;;;;23.13;63.12;99914.53;5053860;28;20187;-65
2023/07/05 05:40:25;;;;;;;3.00;1.73;;;;;;;23.13;63.21;99919.47;5087078;28;20257;-65
2023/07/05 05:42:51;;;;;;;3.83;1.83;;;;;;;23.11;63.52;99921.94;5064345;28;20179;-65
2023/07/05 05:45:16;;;;;;;3.70;1.60;;;;;;;23.10;63.02;99938.41;5087623;28;20212;-64
2023/07/05 05:47:42;;;;;;;3.67;2.00;;;;;;;23.09;63.60;99959.78;5080506;28;20240;-65
2023/07/05 05:50:08;;;;;;;4.73;2.20;;;;;;;23.06;63.23;99963.53;5056488;28;20262;-64
2023/07/05 05:52:34;;;;;;;3.03;1.80;;;;;;;23.03;63.42;99972.19;5056117;28;20439;-64
2023/07/05 05:54:59;;;;;;;2.97;1.70;;;;;;;23.03;63.04;99967.22;5081990;28;20270;-64
2023/07/05 05:57:25;;;;;;;4.77;1.83;;;;;;;23.01;62.82;99966.84;5075319;28;20178;-64
2023/07/05 05:59:50;;;;;;;4.20;1.83;;;;;;;23.02;62.56;99971.38;5061469;28;20207;-64
2023/07/05 06:02:16;;;;;;;4.00;1.87;;;;;;;22.99;62.40;99977.97;5087706;28;20264;-64
2023/07/05 06:04:41;;;;;;;5.00;2.30;;;;;;;22.99;61.95;99977.97;5075634;28;20280;-65
2023/07/05 06:07:07;;;;;;;4.10;2.07;;;;;;;22.97;61.72;99971.78;5078697;28;20198;-65
2023/07/05 06:09:39;;;;;;;4.90;1.90;;;;;;;22.98;61.59;99981.28;5073714;28;20187;-65
2023/07/05 06:12:05;;;;;;;3.63;2.17;;;;;;;22.99;61.75;99982.91;5053475;28;20266;-65
2023/07/05 06:14:30;;;;;;;9.43;1.90;;;;;;;22.99;61.63;99994.41;5071653;28;20452;-65
2023/07/05 06:16:56;;;;;;;5.13;2.10;;;;;;;23.00;60.93;99994.00;5075913;28;20436;-65
2023/07/05 06:19:21;;;;;;;4.93;2.33;;;;;;;22.98;61.23;99999.34;5068433;28;20615;-64
2023/07/05 06:21:47;;;;;;;5.97;2.67;;;;;;;23.00;60.84;100008.41;5062525;28;20258;-65
2023/07/05 06:24:12;;;;;;;6.00;2.83;;;;;;;22.99;61.09;100006.78;5051953;28;20517;-65
2023/07/05 06:26:38;;;;;;;7.80;2.23;;;;;;;23.00;60.89;100013.34;5061286;28;20183;-65
2023/07/05 06:29:03;;;;;;;3.70;2.17;;;;;;;23.00;60.80;100013.34;5085898;28;20182;-65
2023/07/05 06:31:33;;;;;;;4.20;2.30;;;;;;;22.98;60.82;100019.50;5082418;28;20174;-65
2023/07/05 06:33:59;;;;;;;6.47;2.77;;;;;;;23.00;61.28;100031.44;5076547;28;20198;-65
2023/07/05 06:36:25;;;;;;;4.37;2.10;;;;;;;23.00;60.99;100025.69;5067742;28;20463;-65
2023/07/05 06:38:50;;;;;;;3.70;2.50;;;;;;;23.02;61.00;100031.03;5058239;28;20939;-64
2023/07/05 06:41:16;;;;;;;5.93;2.37;;;;;;;23.01;61.26;100044.59;5080746;28;20465;-65
2023/07/05 06:43:41;;;;;;;4.57;2.17;;;;;;;23.00;60.68;100045.00;5075600;28;20184;-65
2023/07/05 06:46:07;;;;;;;3.90;2.23;;;;;;;23.00;60.45;100042.97;5073003;28;20187;-65
2023/07/05 06:48:32;;;;;;;4.60;2.90;;;;;;;23.00;60.86;100048.72;5055061;28;20232;-65
2023/07/05 06:50:59;;;;;;;5.97;2.60;;;;;;;23.01;60.17;100050.34;5065180;28;20174;-65
2023/07/05 06:53:24;;;;;;;5.83;2.90;;;;;;;23.01;60.44;100061.88;5075385;28;20179;-65
2023/07/05 06:55:50;;;;;;;4.10;2.47;;;;;;;23.03;59.87;100061.47;5048307;28;20894;-65
2023/07/05 06:58:21;;;;;;;4.33;2.47;;;;;;;23.02;59.98;100063.50;5077680;28;20193;-65
2023/07/05 07:00:50;;;;;;;7.13;3.03;;;;;;;23.03;59.81;100062.25;5071921;28;20195;-65
2023/07/05 07:03:16;;;;;;;5.13;2.80;;;;;;;23.03;59.99;100073.78;5070329;28;20560;-65
2023/07/05 07:05:46;;;;;;;5.50;3.00;;;;;;;23.03;60.15;100070.91;5087489;28;20420;-65
2023/07/05 07:08:12;;;;;;;5.50;3.00;;;;;;;23.03;60.09;100084.50;5054861;28;20210;-65
2023/07/05 07:10:38;;;;;;;5.50;2.77;;;;;;;23.00;60.00;100077.50;5087213;28;20527;-65
2023/07/05 07:13:04;;;;;;;8.60;3.80;;;;;;;22.98;59.53;100076.28;5078860;28;20433;-65
2023/07/05 07:15:29;;;;;;;7.53;3.43;;;;;;;22.96;59.58;100073.81;5069751;28;20699;-65
2023/07/05 07:17:55;;;;;;;6.00;3.87;;;;;;;22.96;59.73;100082.47;5069005;28;20421;-65
2023/07/05 07:20:20;;;;;;;6.03;3.30;;;;;;;22.93;60.13;100097.69;5069676;28;20210;-65
2023/07/05 07:22:45;;;;;;;6.10;3.70;;;;;;;22.94;59.37;100090.72;5054542;28;20175;-65
2023/07/05 07:25:11;;;;;;;5.57;3.30;;;;;;;22.93;59.44;100091.91;5074071;28;21024;-65
2023/07/05 07:27:36;;;;;;;5.80;3.13;;;;;;;22.93;59.77;100100.56;5071730;28;20541;-64
2023/07/05 07:30:02;;;;;;;7.10;3.67;;;;;;;22.92;59.21;100104.69;5070558;28;20179;-65
2023/07/05 07:32:27;;;;;;;8.63;3.80;;;;;;;22.92;59.84;100115.38;5079074;28;20605;-65
2023/07/05 07:34:54;;;;;;;5.07;3.37;;;;;;;22.89;59.11;100108.41;5082573;28;20193;-65
2023/07/05 07:37:19;;;;;;;6.33;3.93;;;;;;;22.88;58.71;100111.69;5060578;28;20187;-64
2023/07/05 07:39:45;;;;;;;6.83;3.70;;;;;;;22.88;58.91;100108.81;5050777;28;20534;-65
2023/07/05 07:42:10;;;;;;;6.03;3.83;;;;;;;22.88;58.32;100109.63;5070023;28;20183;-65
2023/07/05 07:44:36;;;;;;;8.60;3.80;;;;;;;22.87;57.87;100110.06;5071593;28;20178;-64
2023/07/05 07:47:01;;;;;;;4.90;3.43;;;;;;;22.87;58.48;100110.06;5050465;28;20189;-65
2023/07/05 07:49:27;;;;;;;6.77;3.80;;;;;;;22.86;58.12;100117.03;5076592;28;20541;-64
2023/07/05 07:51:52;;;;;;;8.17;4.43;;;;;;;22.87;58.15;100107.97;5085661;28;20650;-65
2023/07/05 07:54:20;;;;;;;7.33;4.03;;;;;;;22.87;57.56;100124.44;5081335;28;20277;-65
2023/07/05 07:56:46;;;;;;;5.20;3.60;;;;;;;22.86;57.58;100135.13;5036346;28;20179;-64
2023/07/05 07:59:12;;;;;;;7.57;4.50;;;;;;;22.86;56.98;100140.88;5051245;28;20469;-64
2023/07/05 08:01:38;;;;;;;6.13;3.83;;;;;;;22.85;56.81;100136.38;5069261;28;20468;-65
2023/07/05 08:04:04;;;;;;;7.57;4.30;;;;;;;22.84;57.04;100143.38;5078963;28;20237;-65
2023/07/05 08:06:30;;;;;;;6.73;3.93;;;;;;;22.86;56.72;100160.22;5060196;28;20199;-65
2023/07/05 08:08:56;;;;;;;8.13;5.10;;;;;;;22.84;55.78;100157.78;5073132;28;20431;-65
2023/07/05 08:11:21;;;;;;;7.80;4.10;;;;;;;22.84;55.91;100154.88;5080285;28;21294;-64
2023/07/05 08:13:48;;;;;;;7.10;4.07;;;;;;;22.84;55.46;100179.97;5068758;28;20260;-65
2023/07/05 08:16:14;;;;;;;6.60;4.20;;;;;;;22.81;54.19;100167.22;5074336;28;20201;-65
2023/07/05 08:18:40;;;;;;;5.30;3.30;;;;;;;22.81;54.52;100170.09;5057680;28;20429;-65
2023/07/05 08:21:05;;;;;;;9.27;3.83;;;;;;;22.82;53.90;100182.44;5070273;28;20199;-65
2023/07/05 08:23:30;;;;;;;7.53;3.73;;;;;;;22.77;53.23;100172.16;5071654;28;20180;-65
2023/07/05 08:25:56;;;;;;;6.47;3.47;;;;;;;22.71;51.46;100168.06;5032251;28;20179;-64
2023/07/05 08:28:25;;;;;;;9.73;4.20;;;;;;;22.68;51.31;100180.38;5071226;28;20642;-65
2023/07/05 08:30:59;;;;;;;6.07;3.47;;;;;;;22.70;51.61;100189.44;5050075;28;20183;-64
2023/07/05 08:33:26;;;;;;;5.73;3.40;;;;;;;22.72;51.67;100189.03;5063154;28;20432;-65
2023/07/05 08:36:12;;;;;;;5.23;3.43;;;;;;;22.72;50.95;100197.66;5084415;28;20412;-64
2023/07/05 08:38:38;;;;;;;8.60;3.77;;;;;;;22.73;51.44;100194.34;5060825;28;20432;-65
2023/07/05 08:41:13;;;;;;;5.80;3.07;;;;;;;22.75;51.75;100202.59;5081471;28;20456;-65
2023/07/05 08:43:41;;;;;;;6.13;3.00;;;;;;;22.73;51.23;100196.44;5070678;28;21054;-64
2023/07/05 08:46:10;;;;;;;6.90;3.40;;;;;;;22.75;51.23;100203.41;5059308;28;20524;-64
2023/07/05 08:48:35;;;;;;;6.90;3.40;;;;;;;22.73;50.68;100197.22;5048085;28;20432;-64
2023/07/05 08:51:01;;;;;;;6.53;3.57;;;;;;;22.74;51.12;100210.41;5075413;28;20999;-64
2023/07/05 08:53:27;;;;;;;5.93;3.20;;;;;;;22.73;50.77;100207.94;5063375;28;20186;-65
2023/07/05 08:56:06;;;;;;;4.97;3.20;;;;;;;22.73;50.74;100199.31;5059121;28;20629;-65
2023/07/05 08:58:46;;;;;;;6.27;3.20;;;;;;;22.71;50.12;100205.47;5037113;28;20174;-64
2023/07/05 09:01:22;;;;;;;4.93;3.07;;;;;;;22.72;50.44;100212.88;5052947;28;20457;-65
2023/07/05 09:03:47;;;;;;;5.13;3.30;;;;;;;22.70;50.04;100200.94;5057890;28;20461;-65
2023/07/05 09:06:16;;;;;;;8.60;3.37;;;;;;;22.70;50.20;100212.47;5051529;28;20923;-65
2023/07/05 09:08:51;;;;;;;8.40;3.33;;;;;;;22.69;50.09;100216.59;5065577;28;20209;-65
2023/07/05 09:11:43;;;;;;;9.93;3.10;;;;;;;22.70;49.99;100209.59;5076958;28;20423;-64
2023/07/05 09:14:36;;;;;;;5.07;2.80;;;;;;;22.71;49.91;100210.38;5074454;28;20423;-64
2023/07/05 09:17:13;;;;;;;5.47;2.70;;;;;;;22.70;49.01;100218.22;5067965;28;20409;-65
2023/07/05 09:19:44;;;;;;;4.80;3.00;;;;;;;22.71;49.55;100214.09;5053404;28;20428;-65
2023/07/05 09:22:13;;;;;;;9.07;3.37;;;;;;;22.69;50.06;100221.50;5074287;28;21052;-65
2023/07/05 09:24:39;;;;;;;7.93;3.10;;;;;;;22.68;49.30;100222.75;5053727;28;20459;-64
2023/07/05 09:27:17;;;;;;;6.67;3.40;;;;;;;22.67;49.31;100216.16;5066393;28;20456;-64
2023/07/05 09:30:06;;;;;;;6.50;2.80;;;;;;;22.68;49.62;100232.19;5071580;28;20427;-64
2023/07/05 09:32:36;;;;;;;6.07;2.40;;;;;;;22.68;49.46;100225.63;5075241;28;21383;-64
2023/07/05 09:35:01;;;;;;;9.20;3.17;;;;;;;22.69;49.77;100242.50;5035914;28;20796;-65
2023/07/05 09:37:34;;;;;;;4.67;2.83;;;;;;;22.68;49.63;100223.56;5071632;28;20776;-64
2023/07/05 09:40:00;;;;;;;7.63;3.00;;;;;;;22.69;49.71;100233.84;5070092;28;20209;-64
2023/07/05 09:42:28;;;;;;;7.03;3.40;;;;;;;22.68;49.66;100237.94;5079198;28;20429;-65
2023/07/05 09:44:54;;;;;;;6.10;3.20;;;;;;;22.69;49.46;100233.03;5050264;28;20197;-65
2023/07/05 09:47:20;;;;;;;4.10;2.37;;;;;;;22.69;49.80;100241.66;5081871;28;20436;-64
2023/07/05 09:49:46;;;;;;;5.03;2.90;;;;;;;22.67;49.31;100239.19;5039525;28;20182;-65
2023/07/05 09:52:11;;;;;;;7.47;2.90;;;;;;;22.68;49.81;100237.94;5088277;28;20443;-65
2023/07/05 09:54:37;;;;;;;6.40;3.00;;;;;;;22.68;49.68;100235.06;5050796;28;20285;-64
2023/07/05 09:57:09;;;;;;;4.97;3.03;;;;;;;22.67;49.74;100250.69;5053486;28;20183;-64
2023/07/05 09:59:34;;;;;;;5.53;3.40;;;;;;;22.68;49.68;100246.56;5075881;28;20635;-65
2023/07/05 10:02:16;;;;;;;5.60;2.80;;;;;;;22.69;49.93;100256.03;5071245;28;20421;-65
2023/07/05 10:04:46;;;;;;;4.80;3.40;;;;;;;22.67;49.45;100256.44;5079694;28;20283;-65
2023/07/05 10:07:20;;;;;;;9.07;2.73;;;;;;;22.68;49.24;100260.97;5052495;28;20445;-65
2023/07/05 10:09:54;;;;;;;3.93;2.67;;;;;;;22.69;50.11;100256.88;5080074;28;20531;-65
2023/07/05 10:12:20;;;;;;;5.10;2.80;;;;;;;22.70;49.96;100257.69;5089347;28;20442;-64
2023/07/05 10:14:46;;;;;;;4.10;2.80;;;;;;;22.70;49.78;100261.41;5055431;28;20543;-65
2023/07/05 10:17:12;;;;;;;9.23;3.13;;;;;;;22.71;50.21;100270.84;5056158;28;20170;-65
2023/07/05 10:19:38;;;;;;;6.83;2.80;;;;;;;22.71;49.77;100265.91;5077713;28;20499;-64
2023/07/05 10:22:34;;;;;;;5.03;3.10;;;;;;;22.71;49.82;100271.66;5068037;28;20274;-65
2023/07/05 10:25:14;;;;;;;5.67;2.80;;;;;;;22.72;50.08;100275.38;5066781;28;20999;-65
2023/07/05 10:27:41;;;;;;;5.13;2.87;;;;;;;22.71;49.60;100271.66;5049475;28;20467;-64
2023/07/05 10:30:13;;;;;;;3.53;2.47;;;;;;;22.71;50.27;100265.91;5055590;28;20477;-64
2023/07/05 10:32:38;;;;;;;5.40;3.40;;;;;;;22.70;49.54;100261.41;5061900;28;20475;-64
2023/07/05 10:35:29;;;;;;;4.73;2.77;;;;;;;22.70;49.87;100252.75;5051633;28;20432;-65
2023/07/05 10:37:54;;;;;;;4.57;2.53;;;;;;;22.71;49.96;100265.91;5060581;28;20209;-65
2023/07/05 10:40:21;;;;;;;4.47;2.73;;;;;;;22.71;49.38;100263.03;5085815;28;20464;-65
2023/07/05 10:42:51;;;;;;;6.87;2.73;;;;;;;22.71;49.77;100270.84;5049633;28;20530;-65
2023/07/05 10:45:19;;;;;;;4.13;2.67;;;;;;;22.71;49.25;100270.84;5052973;28;20467;-65
2023/07/05 10:47:54;;;;;;;4.10;2.30;;;;;;;22.71;49.15;100274.53;5072270;28;20488;-64
2023/07/05 10:50:26;;;;;;;5.87;2.47;;;;;;;22.71;49.36;100274.53;5072619;28;20826;-65
2023/07/05 10:53:12;;;;;;;4.47;2.73;;;;;;;22.72;49.33;100275.38;5069011;28;20417;-65
2023/07/05 10:55:45;;;;;;;4.77;3.07;;;;;;;22.71;49.59;100271.66;5084338;28;20493;-65
2023/07/05 10:58:15;;;;;;;6.07;2.90;;;;;;;22.71;49.77;100260.16;5068809;28;20456;-65
2023/07/05 11:01:03;;;;;;;4.33;2.40;;;;;;;22.70;49.24;100263.44;5051679;28;20826;-64
2023/07/05 11:04:05;;;;;;;6.83;2.83;;;;;;;22.70;49.34;100260.56;5064658;28;20479;-64
2023/07/05 11:06:33;;;;;;;4.93;2.43;;;;;;;22.70;49.42;100258.53;5065609;28;20455;-65
2023/07/05 11:08:59;;;;;;;4.03;2.43;;;;;;;22.71;49.22;100260.16;5052239;28;20921;-64
2023/07/05 11:11:28;;;;;;;5.90;2.70;;;;;;;22.72;49.09;100250.28;5067125;28;20491;-64
2023/07/05 11:13:53;;;;;;;4.43;2.70;;;;;;;22.74;49.22;100252.75;5048788;28;20227;-64
2023/07/05 11:16:23;;;;;;;3.50;2.13;;;;;;;22.73;48.45;100259.75;5074313;28;20426;-64
2023/07/05 11:18:49;;;;;;;3.83;2.43;;;;;;;22.72;48.44;100258.91;5037058;28;20179;-64
2023/07/05 11:21:44;;;;;;;5.17;2.70;;;;;;;22.71;47.98;100263.03;5073579;28;20784;-65
2023/07/05 11:24:11;;;;;;;3.97;2.40;;;;;;;22.71;47.96;100260.16;5062849;28;20193;-64
2023/07/05 11:26:37;;;;;;;3.67;2.20;;;;;;;22.70;47.89;100252.75;5062678;28;20428;-64
2023/07/05 11:29:32;;;;;;;4.63;2.80;;;;;;;22.72;48.09;100261.00;5068128;28;20980;-64
2023/07/05 11:32:06;;;;;;;3.40;2.20;;;;;;;22.72;47.99;100258.13;5067025;28;20967;-64
2023/07/05 11:34:32;;;;;;;4.70;2.23;;;;;;;22.72;47.68;100250.28;5053988;28;21288;-64